sensor_id;sensor_type;location;lat;lon;timestamp;temperature;humidity
43884;DHT22;29544;52.018;5.810;2023-05-07T00:01:16;21.30;56.60
43884;DHT22;29544;52.018;5.810;2023-05-07T00:03:42;21.30;56.60
43884;DHT22;29544;52.018;5.810;2023-05-07T00:06:07;21.30;56.60
43884;DHT22;29544;52.018;5.810;2023-05-07T00:08:33;21.30;56.60
43884;DHT22;29544;52.018;5.810;2023-05-07T00:10:58;21.30;56.60
43884;DHT22;29544;52.018;5.810;2023-05-07T00:13:24;21.20;57.10
43884;DHT22;29544;52.018;5.810;2023-05-07T00:15:49;21.30;56.60
43884;DHT22;29544;52.018;5.810;2023-05-07T00:18:15;21.30;56.60
43884;DHT22;29544;52.018;5.810;2023-05-07T00:20:41;21.20;56.50
43884;DHT22;29544;52.018;5.810;2023-05-07T00:23:06;21.20;56.50
43884;DHT22;29544;52.018;5.810;2023-05-07T00:25:32;21.20;56.60
43884;DHT22;29544;52.018;5.810;2023-05-07T00:27:57;21.20;56.50
43884;DHT22;29544;52.018;5.810;2023-05-07T00:30:28;21.20;56.60
43884;DHT22;29544;52.018;5.810;2023-05-07T00:32:53;21.20;56.60
43884;DHT22;29544;52.018;5.810;2023-05-07T00:35:19;21.20;56.60
43884;DHT22;29544;52.018;5.810;2023-05-07T00:37:45;21.20;56.60
43884;DHT22;29544;52.018;5.810;2023-05-07T00:40:10;21.20;56.50
43884;DHT22;29544;52.018;5.810;2023-05-07T00:42:36;21.20;56.60
43884;DHT22;29544;52.018;5.810;2023-05-07T00:45:02;21.20;56.60
43884;DHT22;29544;52.018;5.810;2023-05-07T00:47:28;21.20;57.20
43884;DHT22;29544;52.018;5.810;2023-05-07T00:49:54;21.10;56.50
43884;DHT22;29544;52.018;5.810;2023-05-07T00:52:21;21.10;56.60
43884;DHT22;29544;52.018;5.810;2023-05-07T00:54:50;21.10;56.60
43884;DHT22;29544;52.018;5.810;2023-05-07T00:57:16;21.10;56.60
43884;DHT22;29544;52.018;5.810;2023-05-07T00:59:41;21.10;56.60
43884;DHT22;29544;52.018;5.810;2023-05-07T01:02:07;21.10;56.60
43884;DHT22;29544;52.018;5.810;2023-05-07T01:04:33;21.10;56.60
43884;DHT22;29544;52.018;5.810;2023-05-07T01:06:59;21.10;56.60
43884;DHT22;29544;52.018;5.810;2023-05-07T01:09:26;21.10;56.60
43884;DHT22;29544;52.018;5.810;2023-05-07T01:11:52;21.10;56.60
43884;DHT22;29544;52.018;5.810;2023-05-07T01:14:19;21.00;56.50
43884;DHT22;29544;52.018;5.810;2023-05-07T01:16:46;21.00;56.50
43884;DHT22;29544;52.018;5.810;2023-05-07T01:19:12;21.00;56.50
43884;DHT22;29544;52.018;5.810;2023-05-07T01:21:44;21.00;56.50
43884;DHT22;29544;52.018;5.810;2023-05-07T01:24:11;21.00;56.60
43884;DHT22;29544;52.018;5.810;2023-05-07T01:26:38;21.00;56.50
43884;DHT22;29544;52.018;5.810;2023-05-07T01:29:04;21.00;56.50
43884;DHT22;29544;52.018;5.810;2023-05-07T01:31:29;20.90;56.50
43884;DHT22;29544;52.018;5.810;2023-05-07T01:33:56;21.00;56.60
43884;DHT22;29544;52.018;5.810;2023-05-07T01:36:24;21.00;56.60
43884;DHT22;29544;52.018;5.810;2023-05-07T01:38:52;20.90;56.50
43884;DHT22;29544;52.018;5.810;2023-05-07T01:41:19;20.90;56.50
43884;DHT22;29544;52.018;5.810;2023-05-07T01:43:45;20.90;56.60
43884;DHT22;29544;52.018;5.810;2023-05-07T01:46:12;20.90;56.60
43884;DHT22;29544;52.018;5.810;2023-05-07T01:48:38;20.90;56.50
43884;DHT22;29544;52.018;5.810;2023-05-07T01:51:05;20.90;56.50
43884;DHT22;29544;52.018;5.810;2023-05-07T01:53:40;20.90;56.60
43884;DHT22;29544;52.018;5.810;2023-05-07T01:56:06;20.90;56.60
43884;DHT22;29544;52.018;5.810;2023-05-07T01:58:32;20.90;56.60
43884;DHT22;29544;52.018;5.810;2023-05-07T02:00:57;20.90;56.60
43884;DHT22;29544;52.018;5.810;2023-05-07T02:03:23;20.90;56.60
43884;DHT22;29544;52.018;5.810;2023-05-07T02:05:48;20.90;56.70
43884;DHT22;29544;52.018;5.810;2023-05-07T02:08:14;20.90;56.70
43884;DHT22;29544;52.018;5.810;2023-05-07T02:10:39;20.90;57.20
43884;DHT22;29544;52.018;5.810;2023-05-07T02:13:05;20.80;56.60
43884;DHT22;29544;52.018;5.810;2023-05-07T02:15:30;20.80;56.60
43884;DHT22;29544;52.018;5.810;2023-05-07T02:18:04;20.80;56.60
43884;DHT22;29544;52.018;5.810;2023-05-07T02:20:29;20.80;56.60
43884;DHT22;29544;52.018;5.810;2023-05-07T02:22:55;20.80;56.60
43884;DHT22;29544;52.018;5.810;2023-05-07T02:25:20;20.80;56.60
43884;DHT22;29544;52.018;5.810;2023-05-07T02:27:46;20.80;56.60
43884;DHT22;29544;52.018;5.810;2023-05-07T02:30:12;20.80;56.70
43884;DHT22;29544;52.018;5.810;2023-05-07T02:32:37;20.80;56.70
43884;DHT22;29544;52.018;5.810;2023-05-07T02:35:03;20.80;56.70
43884;DHT22;29544;52.018;5.810;2023-05-07T02:37:29;20.80;56.60
43884;DHT22;29544;52.018;5.810;2023-05-07T02:39:54;20.80;56.60
43884;DHT22;29544;52.018;5.810;2023-05-07T02:42:20;20.80;56.70
43884;DHT22;29544;52.018;5.810;2023-05-07T02:44:45;20.70;56.70
43884;DHT22;29544;52.018;5.810;2023-05-07T02:47:11;20.70;56.60
43884;DHT22;29544;52.018;5.810;2023-05-07T02:49:38;20.70;56.60
43884;DHT22;29544;52.018;5.810;2023-05-07T02:52:03;20.70;56.60
43884;DHT22;29544;52.018;5.810;2023-05-07T02:54:29;20.70;56.70
43884;DHT22;29544;52.018;5.810;2023-05-07T02:56:55;20.70;56.60
43884;DHT22;29544;52.018;5.810;2023-05-07T02:59:20;20.70;56.70
43884;DHT22;29544;52.018;5.810;2023-05-07T03:01:46;20.70;56.70
43884;DHT22;29544;52.018;5.810;2023-05-07T03:04:11;20.70;56.70
43884;DHT22;29544;52.018;5.810;2023-05-07T03:06:37;20.70;56.70
43884;DHT22;29544;52.018;5.810;2023-05-07T03:09:02;20.70;56.70
43884;DHT22;29544;52.018;5.810;2023-05-07T03:11:28;20.70;56.70
43884;DHT22;29544;52.018;5.810;2023-05-07T03:13:54;20.70;56.70
43884;DHT22;29544;52.018;5.810;2023-05-07T03:16:19;20.60;56.70
43884;DHT22;29544;52.018;5.810;2023-05-07T03:18:45;20.60;56.70
43884;DHT22;29544;52.018;5.810;2023-05-07T03:21:10;20.60;56.70
43884;DHT22;29544;52.018;5.810;2023-05-07T03:23:36;20.60;56.70
43884;DHT22;29544;52.018;5.810;2023-05-07T03:26:01;20.60;56.70
43884;DHT22;29544;52.018;5.810;2023-05-07T03:28:27;20.60;56.70
43884;DHT22;29544;52.018;5.810;2023-05-07T03:30:52;20.60;56.80
43884;DHT22;29544;52.018;5.810;2023-05-07T03:33:18;20.60;56.80
43884;DHT22;29544;52.018;5.810;2023-05-07T03:35:43;20.60;56.80
43884;DHT22;29544;52.018;5.810;2023-05-07T03:38:09;20.60;56.70
43884;DHT22;29544;52.018;5.810;2023-05-07T03:40:34;20.60;56.80
43884;DHT22;29544;52.018;5.810;2023-05-07T03:43:00;20.60;56.70
43884;DHT22;29544;52.018;5.810;2023-05-07T03:45:26;20.60;56.80
43884;DHT22;29544;52.018;5.810;2023-05-07T03:47:51;20.60;56.80
43884;DHT22;29544;52.018;5.810;2023-05-07T03:50:17;20.50;56.70
43884;DHT22;29544;52.018;5.810;2023-05-07T03:52:42;20.50;56.70
43884;DHT22;29544;52.018;5.810;2023-05-07T03:55:08;20.50;56.70
43884;DHT22;29544;52.018;5.810;2023-05-07T03:57:34;20.50;56.70
43884;DHT22;29544;52.018;5.810;2023-05-07T03:59:59;20.50;56.70
43884;DHT22;29544;52.018;5.810;2023-05-07T04:02:25;20.50;56.80
43884;DHT22;29544;52.018;5.810;2023-05-07T04:04:50;20.50;56.80
43884;DHT22;29544;52.018;5.810;2023-05-07T04:07:16;20.50;56.80
43884;DHT22;29544;52.018;5.810;2023-05-07T04:09:41;20.50;56.80
43884;DHT22;29544;52.018;5.810;2023-05-07T04:12:07;20.50;56.80
43884;DHT22;29544;52.018;5.810;2023-05-07T04:14:32;20.50;56.80
43884;DHT22;29544;52.018;5.810;2023-05-07T04:16:59;20.50;56.90
43884;DHT22;29544;52.018;5.810;2023-05-07T04:19:24;20.50;56.90
43884;DHT22;29544;52.018;5.810;2023-05-07T04:21:50;20.50;56.80
43884;DHT22;29544;52.018;5.810;2023-05-07T04:24:16;20.50;56.80
43884;DHT22;29544;52.018;5.810;2023-05-07T04:26:41;20.50;56.90
43884;DHT22;29544;52.018;5.810;2023-05-07T04:29:07;20.40;56.80
43884;DHT22;29544;52.018;5.810;2023-05-07T04:31:32;20.40;56.80
43884;DHT22;29544;52.018;5.810;2023-05-07T04:33:58;20.40;56.80
43884;DHT22;29544;52.018;5.810;2023-05-07T04:36:24;20.40;56.80
43884;DHT22;29544;52.018;5.810;2023-05-07T04:38:53;20.40;56.80
43884;DHT22;29544;52.018;5.810;2023-05-07T04:41:18;20.40;56.90
43884;DHT22;29544;52.018;5.810;2023-05-07T04:43:44;20.40;56.90
43884;DHT22;29544;52.018;5.810;2023-05-07T04:46:10;20.40;56.90
43884;DHT22;29544;52.018;5.810;2023-05-07T04:48:35;20.40;57.00
43884;DHT22;29544;52.018;5.810;2023-05-07T04:51:01;20.40;56.90
43884;DHT22;29544;52.018;5.810;2023-05-07T04:53:26;20.40;57.00
43884;DHT22;29544;52.018;5.810;2023-05-07T04:55:56;20.40;56.90
43884;DHT22;29544;52.018;5.810;2023-05-07T04:58:22;20.40;56.90
43884;DHT22;29544;52.018;5.810;2023-05-07T05:00:48;20.40;56.90
43884;DHT22;29544;52.018;5.810;2023-05-07T05:03:14;20.40;56.90
43884;DHT22;29544;52.018;5.810;2023-05-07T05:05:39;20.40;57.00
43884;DHT22;29544;52.018;5.810;2023-05-07T05:08:05;20.40;57.00
43884;DHT22;29544;52.018;5.810;2023-05-07T05:10:30;20.40;57.00
43884;DHT22;29544;52.018;5.810;2023-05-07T05:12:56;20.40;57.00
43884;DHT22;29544;52.018;5.810;2023-05-07T05:15:22;20.40;57.00
43884;DHT22;29544;52.018;5.810;2023-05-07T05:17:47;20.40;57.00
43884;DHT22;29544;52.018;5.810;2023-05-07T05:20:13;20.30;56.90
43884;DHT22;29544;52.018;5.810;2023-05-07T05:22:40;20.30;57.00
43884;DHT22;29544;52.018;5.810;2023-05-07T05:25:05;20.30;57.00
43884;DHT22;29544;52.018;5.810;2023-05-07T05:27:31;20.30;56.90
43884;DHT22;29544;52.018;5.810;2023-05-07T05:29:56;20.30;57.00
43884;DHT22;29544;52.018;5.810;2023-05-07T05:32:22;20.40;57.00
43884;DHT22;29544;52.018;5.810;2023-05-07T05:34:47;20.40;57.00
43884;DHT22;29544;52.018;5.810;2023-05-07T05:37:13;20.30;57.00
43884;DHT22;29544;52.018;5.810;2023-05-07T05:39:38;20.30;57.00
43884;DHT22;29544;52.018;5.810;2023-05-07T05:42:04;20.30;57.00
43884;DHT22;29544;52.018;5.810;2023-05-07T05:44:29;20.30;57.10
43884;DHT22;29544;52.018;5.810;2023-05-07T05:46:55;20.30;57.00
43884;DHT22;29544;52.018;5.810;2023-05-07T05:49:22;20.30;57.10
43884;DHT22;29544;52.018;5.810;2023-05-07T05:51:48;20.30;57.00
43884;DHT22;29544;52.018;5.810;2023-05-07T05:54:13;20.30;57.20
43884;DHT22;29544;52.018;5.810;2023-05-07T05:56:40;20.30;57.10
43884;DHT22;29544;52.018;5.810;2023-05-07T05:59:05;20.30;57.10
43884;DHT22;29544;52.018;5.810;2023-05-07T06:01:31;20.20;57.00
43884;DHT22;29544;52.018;5.810;2023-05-07T06:03:57;20.20;57.10
43884;DHT22;29544;52.018;5.810;2023-05-07T06:06:22;20.20;57.10
43884;DHT22;29544;52.018;5.810;2023-05-07T06:08:48;20.30;57.10
43884;DHT22;29544;52.018;5.810;2023-05-07T06:11:13;20.20;57.10
43884;DHT22;29544;52.018;5.810;2023-05-07T06:13:39;20.30;57.20
43884;DHT22;29544;52.018;5.810;2023-05-07T06:16:05;20.20;57.10
43884;DHT22;29544;52.018;5.810;2023-05-07T06:18:30;20.20;57.10
43884;DHT22;29544;52.018;5.810;2023-05-07T06:20:56;20.20;57.10
43884;DHT22;29544;52.018;5.810;2023-05-07T06:23:21;20.20;57.10
43884;DHT22;29544;52.018;5.810;2023-05-07T06:25:51;20.20;57.10
43884;DHT22;29544;52.018;5.810;2023-05-07T06:28:16;20.20;57.10
43884;DHT22;29544;52.018;5.810;2023-05-07T06:30:42;20.20;57.20
43884;DHT22;29544;52.018;5.810;2023-05-07T06:33:08;20.20;57.10
43884;DHT22;29544;52.018;5.810;2023-05-07T06:35:33;20.20;57.10
43884;DHT22;29544;52.018;5.810;2023-05-07T06:37:59;20.20;57.10
43884;DHT22;29544;52.018;5.810;2023-05-07T06:40:25;20.20;57.20
43884;DHT22;29544;52.018;5.810;2023-05-07T06:42:51;20.20;57.10
43884;DHT22;29544;52.018;5.810;2023-05-07T06:45:16;20.20;57.20
43884;DHT22;29544;52.018;5.810;2023-05-07T06:47:42;20.20;57.80
43884;DHT22;29544;52.018;5.810;2023-05-07T06:50:08;20.20;57.30
43884;DHT22;29544;52.018;5.810;2023-05-07T06:52:34;20.20;57.20
43884;DHT22;29544;52.018;5.810;2023-05-07T06:55:00;20.20;57.20
43884;DHT22;29544;52.018;5.810;2023-05-07T06:57:26;20.20;57.30
43884;DHT22;29544;52.018;5.810;2023-05-07T06:59:51;20.20;57.30
43884;DHT22;29544;52.018;5.810;2023-05-07T07:02:17;20.20;57.20
43884;DHT22;29544;52.018;5.810;2023-05-07T07:04:42;20.20;57.30
43884;DHT22;29544;52.018;5.810;2023-05-07T07:07:08;20.20;58.00
43884;DHT22;29544;52.018;5.810;2023-05-07T07:09:34;20.20;57.40
43884;DHT22;29544;52.018;5.810;2023-05-07T07:11:59;20.20;57.30
43884;DHT22;29544;52.018;5.810;2023-05-07T07:14:25;20.20;57.40
43884;DHT22;29544;52.018;5.810;2023-05-07T07:16:50;20.20;57.40
43884;DHT22;29544;52.018;5.810;2023-05-07T07:19:16;20.20;57.30
43884;DHT22;29544;52.018;5.810;2023-05-07T07:21:42;20.20;57.40
43884;DHT22;29544;52.018;5.810;2023-05-07T07:24:07;20.20;57.50
43884;DHT22;29544;52.018;5.810;2023-05-07T07:26:33;20.20;57.60
43884;DHT22;29544;52.018;5.810;2023-05-07T07:28:58;20.10;57.70
43884;DHT22;29544;52.018;5.810;2023-05-07T07:31:24;20.20;57.60
43884;DHT22;29544;52.018;5.810;2023-05-07T07:33:49;20.20;58.00
43884;DHT22;29544;52.018;5.810;2023-05-07T07:36:15;20.20;58.40
43884;DHT22;29544;52.018;5.810;2023-05-07T07:38:41;20.20;58.60
43884;DHT22;29544;52.018;5.810;2023-05-07T07:41:08;20.30;58.70
43884;DHT22;29544;52.018;5.810;2023-05-07T07:43:33;20.20;59.30
43884;DHT22;29544;52.018;5.810;2023-05-07T07:45:59;20.30;60.30
43884;DHT22;29544;52.018;5.810;2023-05-07T07:48:24;20.30;59.80
43884;DHT22;29544;52.018;5.810;2023-05-07T07:50:50;20.30;60.00
43884;DHT22;29544;52.018;5.810;2023-05-07T07:53:19;20.30;60.60
43884;DHT22;29544;52.018;5.810;2023-05-07T07:55:44;20.30;60.30
43884;DHT22;29544;52.018;5.810;2023-05-07T07:58:10;20.40;60.20
43884;DHT22;29544;52.018;5.810;2023-05-07T08:00:36;20.40;60.20
43884;DHT22;29544;52.018;5.810;2023-05-07T08:03:01;20.40;60.20
43884;DHT22;29544;52.018;5.810;2023-05-07T08:05:28;20.40;60.30
43884;DHT22;29544;52.018;5.810;2023-05-07T08:07:54;20.30;60.90
43884;DHT22;29544;52.018;5.810;2023-05-07T08:10:19;20.40;60.10
43884;DHT22;29544;52.018;5.810;2023-05-07T08:12:49;20.40;60.20
43884;DHT22;29544;52.018;5.810;2023-05-07T08:15:15;20.40;60.10
43884;DHT22;29544;52.018;5.810;2023-05-07T08:17:40;20.40;60.30
43884;DHT22;29544;52.018;5.810;2023-05-07T08:20:07;20.30;60.10
43884;DHT22;29544;52.018;5.810;2023-05-07T08:22:33;20.40;59.70
43884;DHT22;29544;52.018;5.810;2023-05-07T08:24:59;20.30;59.80
43884;DHT22;29544;52.018;5.810;2023-05-07T08:27:25;20.30;60.00
43884;DHT22;29544;52.018;5.810;2023-05-07T08:29:51;20.30;60.10
43884;DHT22;29544;52.018;5.810;2023-05-07T08:32:16;20.30;60.70
43884;DHT22;29544;52.018;5.810;2023-05-07T08:34:42;20.30;60.20
43884;DHT22;29544;52.018;5.810;2023-05-07T08:37:07;20.30;60.30
43884;DHT22;29544;52.018;5.810;2023-05-07T08:39:33;20.30;61.70
43884;DHT22;29544;52.018;5.810;2023-05-07T08:42:00;20.20;64.00
43884;DHT22;29544;52.018;5.810;2023-05-07T08:44:33;20.20;61.20
43884;DHT22;29544;52.018;5.810;2023-05-07T08:47:01;20.30;61.00
43884;DHT22;29544;52.018;5.810;2023-05-07T08:49:27;20.30;61.80
43884;DHT22;29544;52.018;5.810;2023-05-07T08:51:53;20.30;61.70
43884;DHT22;29544;52.018;5.810;2023-05-07T08:54:18;20.40;61.70
43884;DHT22;29544;52.018;5.810;2023-05-07T08:56:45;20.40;61.80
43884;DHT22;29544;52.018;5.810;2023-05-07T08:59:11;20.40;62.00
43884;DHT22;29544;52.018;5.810;2023-05-07T09:01:36;20.40;62.20
43884;DHT22;29544;52.018;5.810;2023-05-07T09:04:04;20.40;62.10
43884;DHT22;29544;52.018;5.810;2023-05-07T09:06:29;20.50;62.30
43884;DHT22;29544;52.018;5.810;2023-05-07T09:08:55;20.50;62.50
43884;DHT22;29544;52.018;5.810;2023-05-07T09:11:22;20.50;63.50
43884;DHT22;29544;52.018;5.810;2023-05-07T09:13:48;20.50;64.20
43884;DHT22;29544;52.018;5.810;2023-05-07T09:16:14;20.50;64.90
43884;DHT22;29544;52.018;5.810;2023-05-07T09:18:43;20.50;63.10
43884;DHT22;29544;52.018;5.810;2023-05-07T09:21:16;20.50;64.60
43884;DHT22;29544;52.018;5.810;2023-05-07T09:23:42;20.50;65.20
43884;DHT22;29544;52.018;5.810;2023-05-07T09:26:07;20.50;65.00
43884;DHT22;29544;52.018;5.810;2023-05-07T09:28:41;20.50;65.00
43884;DHT22;29544;52.018;5.810;2023-05-07T09:31:10;20.50;65.50
43884;DHT22;29544;52.018;5.810;2023-05-07T09:33:36;20.60;64.00
43884;DHT22;29544;52.018;5.810;2023-05-07T09:36:06;20.50;65.50
43884;DHT22;29544;52.018;5.810;2023-05-07T09:38:33;20.60;63.90
43884;DHT22;29544;52.018;5.810;2023-05-07T09:41:10;20.60;64.80
43884;DHT22;29544;52.018;5.810;2023-05-07T09:43:38;20.50;64.30
43884;DHT22;29544;52.018;5.810;2023-05-07T09:46:13;20.60;63.70
43884;DHT22;29544;52.018;5.810;2023-05-07T09:48:41;20.50;64.50
43884;DHT22;29544;52.018;5.810;2023-05-07T09:51:21;20.50;64.90
43884;DHT22;29544;52.018;5.810;2023-05-07T09:53:48;20.50;64.50
43884;DHT22;29544;52.018;5.810;2023-05-07T09:56:15;20.50;64.50
43884;DHT22;29544;52.018;5.810;2023-05-07T09:58:42;20.60;66.00
43884;DHT22;29544;52.018;5.810;2023-05-07T10:01:10;20.50;65.20
43884;DHT22;29544;52.018;5.810;2023-05-07T10:03:36;20.60;65.60
43884;DHT22;29544;52.018;5.810;2023-05-07T10:06:04;20.50;66.40
43884;DHT22;29544;52.018;5.810;2023-05-07T10:08:30;20.60;64.50
43884;DHT22;29544;52.018;5.810;2023-05-07T10:10:56;20.60;66.00
43884;DHT22;29544;52.018;5.810;2023-05-07T10:13:21;20.50;66.40
43884;DHT22;29544;52.018;5.810;2023-05-07T10:15:47;20.50;66.40
43884;DHT22;29544;52.018;5.810;2023-05-07T10:18:13;20.50;66.20
43884;DHT22;29544;52.018;5.810;2023-05-07T10:20:39;20.60;64.40
43884;DHT22;29544;52.018;5.810;2023-05-07T10:23:08;20.60;63.60
43884;DHT22;29544;52.018;5.810;2023-05-07T10:25:35;20.60;64.30
43884;DHT22;29544;52.018;5.810;2023-05-07T10:28:06;20.60;64.50
43884;DHT22;29544;52.018;5.810;2023-05-07T10:33:03;20.60;64.40
43884;DHT22;29544;52.018;5.810;2023-05-07T10:35:37;20.60;63.40
43884;DHT22;29544;52.018;5.810;2023-05-07T10:38:03;20.70;63.50
43884;DHT22;29544;52.018;5.810;2023-05-07T10:40:31;20.70;63.20
43884;DHT22;29544;52.018;5.810;2023-05-07T10:42:58;20.70;63.20
43884;DHT22;29544;52.018;5.810;2023-05-07T10:45:26;20.70;63.30
43884;DHT22;29544;52.018;5.810;2023-05-07T10:48:13;20.70;63.60
43884;DHT22;29544;52.018;5.810;2023-05-07T10:50:40;20.80;63.20
43884;DHT22;29544;52.018;5.810;2023-05-07T10:55:51;20.80;63.10
43884;DHT22;29544;52.018;5.810;2023-05-07T10:58:36;20.80;62.80
43884;DHT22;29544;52.018;5.810;2023-05-07T11:01:03;20.80;62.90
43884;DHT22;29544;52.018;5.810;2023-05-07T11:03:28;20.90;62.50
43884;DHT22;29544;52.018;5.810;2023-05-07T11:06:14;20.90;62.30
43884;DHT22;29544;52.018;5.810;2023-05-07T11:08:56;20.90;62.30
43884;DHT22;29544;52.018;5.810;2023-05-07T11:11:48;20.90;62.30
43884;DHT22;29544;52.018;5.810;2023-05-07T11:17:07;21.00;61.80
43884;DHT22;29544;52.018;5.810;2023-05-07T11:25:00;21.10;62.00
43884;DHT22;29544;52.018;5.810;2023-05-07T11:27:26;21.10;61.40
43884;DHT22;29544;52.018;5.810;2023-05-07T11:29:52;21.10;61.50
43884;DHT22;29544;52.018;5.810;2023-05-07T11:32:27;21.20;61.40
43884;DHT22;29544;52.018;5.810;2023-05-07T11:34:57;21.20;61.40
43884;DHT22;29544;52.018;5.810;2023-05-07T11:37:24;21.20;61.20
43884;DHT22;29544;52.018;5.810;2023-05-07T11:39:50;21.20;61.00
43884;DHT22;29544;52.018;5.810;2023-05-07T11:42:34;21.20;61.00
43884;DHT22;29544;52.018;5.810;2023-05-07T11:45:01;21.20;61.20
43884;DHT22;29544;52.018;5.810;2023-05-07T11:47:29;21.20;61.10
43884;DHT22;29544;52.018;5.810;2023-05-07T11:49:55;21.20;61.40
43884;DHT22;29544;52.018;5.810;2023-05-07T11:52:22;21.20;61.80
43884;DHT22;29544;52.018;5.810;2023-05-07T11:54:52;21.20;61.80
43884;DHT22;29544;52.018;5.810;2023-05-07T11:57:18;21.20;61.60
43884;DHT22;29544;52.018;5.810;2023-05-07T11:59:45;21.20;61.60
43884;DHT22;29544;52.018;5.810;2023-05-07T12:02:13;21.20;61.30
43884;DHT22;29544;52.018;5.810;2023-05-07T12:04:39;21.10;61.50
43884;DHT22;29544;52.018;5.810;2023-05-07T12:07:05;21.20;61.70
43884;DHT22;29544;52.018;5.810;2023-05-07T12:09:32;21.10;62.30
43884;DHT22;29544;52.018;5.810;2023-05-07T12:12:03;21.10;62.30
43884;DHT22;29544;52.018;5.810;2023-05-07T12:14:29;21.10;62.10
43884;DHT22;29544;52.018;5.810;2023-05-07T12:16:55;21.20;62.20
43884;DHT22;29544;52.018;5.810;2023-05-07T12:19:21;21.20;62.00
43884;DHT22;29544;52.018;5.810;2023-05-07T12:21:47;21.20;62.60
43884;DHT22;29544;52.018;5.810;2023-05-07T12:24:14;21.20;62.20
43884;DHT22;29544;52.018;5.810;2023-05-07T12:26:40;21.20;62.80
43884;DHT22;29544;52.018;5.810;2023-05-07T12:29:06;21.20;62.70
43884;DHT22;29544;52.018;5.810;2023-05-07T12:31:32;21.20;62.30
43884;DHT22;29544;52.018;5.810;2023-05-07T12:33:57;21.20;62.50
43884;DHT22;29544;52.018;5.810;2023-05-07T12:36:23;21.20;62.50
43884;DHT22;29544;52.018;5.810;2023-05-07T12:38:51;21.20;62.50
43884;DHT22;29544;52.018;5.810;2023-05-07T12:41:17;21.20;62.20
43884;DHT22;29544;52.018;5.810;2023-05-07T12:43:46;21.20;62.10
43884;DHT22;29544;52.018;5.810;2023-05-07T12:46:12;21.20;62.00
43884;DHT22;29544;52.018;5.810;2023-05-07T12:48:46;21.30;62.20
43884;DHT22;29544;52.018;5.810;2023-05-07T12:51:11;21.30;62.20
43884;DHT22;29544;52.018;5.810;2023-05-07T12:53:42;21.30;62.10
43884;DHT22;29544;52.018;5.810;2023-05-07T12:56:08;21.30;62.00
43884;DHT22;29544;52.018;5.810;2023-05-07T12:58:34;21.30;61.90
43884;DHT22;29544;52.018;5.810;2023-05-07T13:01:07;21.30;62.30
43884;DHT22;29544;52.018;5.810;2023-05-07T13:03:36;21.30;62.20
43884;DHT22;29544;52.018;5.810;2023-05-07T13:06:04;21.30;62.50
43884;DHT22;29544;52.018;5.810;2023-05-07T13:08:32;21.30;62.40
43884;DHT22;29544;52.018;5.810;2023-05-07T13:11:02;21.30;62.10
43884;DHT22;29544;52.018;5.810;2023-05-07T13:13:32;21.30;62.20
43884;DHT22;29544;52.018;5.810;2023-05-07T13:15:58;21.30;62.20
43884;DHT22;29544;52.018;5.810;2023-05-07T13:18:29;21.30;62.40
43884;DHT22;29544;52.018;5.810;2023-05-07T13:20:54;21.40;62.30
43884;DHT22;29544;52.018;5.810;2023-05-07T13:23:20;21.30;62.10
43884;DHT22;29544;52.018;5.810;2023-05-07T13:25:46;21.40;62.70
43884;DHT22;29544;52.018;5.810;2023-05-07T13:28:11;21.30;62.70
43884;DHT22;29544;52.018;5.810;2023-05-07T13:30:37;21.40;63.30
43884;DHT22;29544;52.018;5.810;2023-05-07T13:33:03;21.40;62.80
43884;DHT22;29544;52.018;5.810;2023-05-07T13:35:28;21.40;62.30
43884;DHT22;29544;52.018;5.810;2023-05-07T13:37:54;21.40;62.70
43884;DHT22;29544;52.018;5.810;2023-05-07T13:40:21;21.40;62.40
43884;DHT22;29544;52.018;5.810;2023-05-07T13:42:47;21.40;62.20
43884;DHT22;29544;52.018;5.810;2023-05-07T13:45:13;21.50;62.40
43884;DHT22;29544;52.018;5.810;2023-05-07T13:47:40;21.50;62.40
43884;DHT22;29544;52.018;5.810;2023-05-07T13:50:07;21.50;62.60
43884;DHT22;29544;52.018;5.810;2023-05-07T13:52:32;21.50;62.60
43884;DHT22;29544;52.018;5.810;2023-05-07T13:54:58;21.50;63.40
43884;DHT22;29544;52.018;5.810;2023-05-07T13:57:24;21.50;63.20
43884;DHT22;29544;52.018;5.810;2023-05-07T13:59:50;21.50;63.20
43884;DHT22;29544;52.018;5.810;2023-05-07T14:02:15;21.60;63.20
43884;DHT22;29544;52.018;5.810;2023-05-07T14:04:41;21.60;63.00
43884;DHT22;29544;52.018;5.810;2023-05-07T14:07:06;21.50;62.70
43884;DHT22;29544;52.018;5.810;2023-05-07T14:09:32;21.50;63.00
43884;DHT22;29544;52.018;5.810;2023-05-07T14:11:58;21.50;63.40
43884;DHT22;29544;52.018;5.810;2023-05-07T14:14:24;21.60;63.80
43884;DHT22;29544;52.018;5.810;2023-05-07T14:16:49;21.50;63.50
43884;DHT22;29544;52.018;5.810;2023-05-07T14:19:15;21.60;63.50
43884;DHT22;29544;52.018;5.810;2023-05-07T14:21:41;21.60;63.70
43884;DHT22;29544;52.018;5.810;2023-05-07T14:24:07;21.60;63.50
43884;DHT22;29544;52.018;5.810;2023-05-07T14:26:34;21.60;63.20
43884;DHT22;29544;52.018;5.810;2023-05-07T14:29:00;21.60;63.60
43884;DHT22;29544;52.018;5.810;2023-05-07T14:31:25;21.60;63.20
43884;DHT22;29544;52.018;5.810;2023-05-07T14:33:51;21.60;63.10
43884;DHT22;29544;52.018;5.810;2023-05-07T14:36:17;21.60;63.60
43884;DHT22;29544;52.018;5.810;2023-05-07T14:38:45;21.70;63.20
43884;DHT22;29544;52.018;5.810;2023-05-07T14:41:11;21.70;63.40
43884;DHT22;29544;52.018;5.810;2023-05-07T14:43:36;21.70;63.10
43884;DHT22;29544;52.018;5.810;2023-05-07T14:46:02;21.60;63.20
43884;DHT22;29544;52.018;5.810;2023-05-07T14:48:27;21.70;63.10
43884;DHT22;29544;52.018;5.810;2023-05-07T14:50:53;21.70;63.00
43884;DHT22;29544;52.018;5.810;2023-05-07T14:53:18;21.70;63.00
43884;DHT22;29544;52.018;5.810;2023-05-07T14:55:44;21.70;62.90
43884;DHT22;29544;52.018;5.810;2023-05-07T14:58:10;21.70;62.80
43884;DHT22;29544;52.018;5.810;2023-05-07T15:00:36;21.70;63.20
43884;DHT22;29544;52.018;5.810;2023-05-07T15:03:07;21.70;62.90
43884;DHT22;29544;52.018;5.810;2023-05-07T15:05:33;21.70;62.90
43884;DHT22;29544;52.018;5.810;2023-05-07T15:07:59;21.70;62.90
43884;DHT22;29544;52.018;5.810;2023-05-07T15:10:25;21.70;62.80
43884;DHT22;29544;52.018;5.810;2023-05-07T15:12:50;21.70;62.70
43884;DHT22;29544;52.018;5.810;2023-05-07T15:15:16;21.70;62.70
43884;DHT22;29544;52.018;5.810;2023-05-07T15:17:41;21.70;62.90
43884;DHT22;29544;52.018;5.810;2023-05-07T15:20:07;21.80;62.70
43884;DHT22;29544;52.018;5.810;2023-05-07T15:22:33;21.70;62.70
43884;DHT22;29544;52.018;5.810;2023-05-07T15:24:59;21.70;62.70
43884;DHT22;29544;52.018;5.810;2023-05-07T15:27:25;21.70;63.00
43884;DHT22;29544;52.018;5.810;2023-05-07T15:29:50;21.70;63.00
43884;DHT22;29544;52.018;5.810;2023-05-07T15:32:16;21.80;63.00
43884;DHT22;29544;52.018;5.810;2023-05-07T15:34:41;21.70;63.10
43884;DHT22;29544;52.018;5.810;2023-05-07T15:37:07;21.80;63.20
43884;DHT22;29544;52.018;5.810;2023-05-07T15:39:33;21.80;63.20